Time;durP1;ratioP1;P1;durP2;ratioP2;P2;SDS_P1;SDS_P2;PMS_P1;PMS_P2;Temp;Humidity;BMP_temperature;BMP_pressure;BME280_temperature;BME280_humidity;BME280_pressure;Samples;Min_cycle;Max_cycle;Signal;HPM_P1;HPM_P2
2021/03/26 00:00:01;;;;;;;23.35;10.20;;;;;;;;;;5010958;28;20042;-59
2021/03/26 00:02:27;;;;;;;28.20;10.75;;;;;;;;;;5017575;28;20021;-60
2021/03/26 00:04:52;;;;;;;25.97;10.97;;;;;;;;;;5031126;28;20407;-59
2021/03/26 00:07:18;;;;;;;24.33;11.40;;;;;;;;;;5030605;28;20041;-59
2021/03/26 00:09:44;;;;;;;28.02;11.18;;;;;;;;;;5031274;28;20339;-60
2021/03/26 00:12:11;;;;;;;27.03;11.40;;;;;;;;;;5029396;28;20026;-60
2021/03/26 00:14:36;;;;;;;32.83;12.00;;;;;;;;;;5030097;28;20136;-60
2021/03/26 00:17:02;;;;;;;29.53;14.27;;;;;;;;;;5026153;28;20446;-60
2021/03/26 00:19:27;;;;;;;32.50;12.77;;;;;;;;;;5010578;28;20087;-58
2021/03/26 00:21:53;;;;;;;28.13;12.10;;;;;;;;;;5011247;28;20485;-63
2021/03/26 00:24:18;;;;;;;26.80;12.60;;;;;;;;;;5010554;28;20359;-59
2021/03/26 00:26:43;;;;;;;26.07;12.87;;;;;;;;;;5009596;28;20132;-60
2021/03/26 00:29:11;;;;;;;31.60;14.97;;;;;;;;;;5009668;28;20039;-60
2021/03/26 00:31:40;;;;;;;29.83;14.15;;;;;;;;;;5011608;28;20418;-60
2021/03/26 00:34:06;;;;;;;32.10;13.82;;;;;;;;;;5020715;28;20053;-60
2021/03/26 00:36:31;;;;;;;33.08;14.88;;;;;;;;;;5034209;28;20409;-61
2021/03/26 00:38:57;;;;;;;34.45;15.10;;;;;;;;;;5036131;28;20025;-61
2021/03/26 00:41:23;;;;;;;32.22;16.05;;;;;;;;;;5018388;28;20034;-60
2021/03/26 00:43:48;;;;;;;36.50;18.10;;;;;;;;;;5034851;28;20034;-60
2021/03/26 00:46:13;;;;;;;42.93;19.33;;;;;;;;;;5029095;28;20456;-59
2021/03/26 00:48:39;;;;;;;33.73;16.60;;;;;;;;;;5024261;28;20025;-60
2021/03/26 00:51:04;;;;;;;36.33;19.20;;;;;;;;;;5023449;28;20030;-60
2021/03/26 00:53:31;;;;;;;40.30;19.50;;;;;;;;;;5021794;28;20120;-60
2021/03/26 00:55:57;;;;;;;44.65;19.50;;;;;;;;;;5023361;28;20029;-59
2021/03/26 00:58:25;;;;;;;43.28;19.13;;;;;;;;;;5021781;28;20077;-59
2021/03/26 01:00:52;;;;;;;39.28;20.10;;;;;;;;;;5022484;28;20026;-59
2021/03/26 01:03:18;;;;;;;44.67;20.45;;;;;;;;;;5020389;28;20104;-59
2021/03/26 01:05:51;;;;;;;40.78;20.70;;;;;;;;;;5022756;28;20367;-60
2021/03/26 01:08:16;;;;;;;53.53;20.85;;;;;;;;;;5022462;28;20034;-60
2021/03/26 01:10:44;;;;;;;38.95;20.08;;;;;;;;;;5022908;28;20327;-60
2021/03/26 01:13:11;;;;;;;37.30;18.83;;;;;;;;;;5022046;28;20066;-60
2021/03/26 01:15:37;;;;;;;48.10;19.67;;;;;;;;;;5023251;28;20051;-61
2021/03/26 01:18:03;;;;;;;;;;;;;;;;;;5024051;28;20336;-60
2021/03/26 01:20:30;;;;;;;38.00;19.20;;;;;;;;;;5021343;28;19913;-60
2021/03/26 01:22:56;;;;;;;39.22;19.45;;;;;;;;;;5022421;28;20009;-59
2021/03/26 01:25:32;;;;;;;42.10;19.52;;;;;;;;;;5007195;28;20034;-59
2021/03/26 01:28:25;;;;;;;37.67;18.52;;;;;;;;;;4999035;28;20041;-59
2021/03/26 01:31:10;;;;;;;42.97;19.58;;;;;;;;;;5010250;28;20065;-59
2021/03/26 01:33:37;;;;;;;40.33;19.98;;;;;;;;;;5012371;28;20026;-59
2021/03/26 01:36:04;;;;;;;39.78;20.90;;;;;;;;;;5011101;28;20038;-59
2021/03/26 01:38:29;;;;;;;39.67;19.45;;;;;;;;;;5007854;28;20540;-59
2021/03/26 01:40:58;;;;;;;43.45;20.60;;;;;;;;;;5011444;28;20029;-60
2021/03/26 01:43:33;;;;;;;43.92;20.35;;;;;;;;;;5007791;28;20052;-60
2021/03/26 01:45:59;;;;;;;38.15;19.77;;;;;;;;;;5010126;28;20147;-60
2021/03/26 01:48:36;;;;;;;41.65;19.38;;;;;;;;;;5012025;28;20018;-60
2021/03/26 01:51:03;;;;;;;41.47;19.83;;;;;;;;;;5011195;28;20036;-60
2021/03/26 01:53:29;;;;;;;40.63;19.77;;;;;;;;;;5011545;28;20172;-60
2021/03/26 01:55:55;;;;;;;43.07;20.60;;;;;;;;;;5011657;28;20509;-59
2021/03/26 01:58:22;;;;;;;38.15;19.02;;;;;;;;;;5012642;28;20092;-60
2021/03/26 02:00:50;;;;;;;42.13;19.60;;;;;;;;;;5012064;28;20192;-60
2021/03/26 02:03:35;;;;;;;51.88;20.98;;;;;;;;;;5013737;28;20176;-60
2021/03/26 02:06:13;;;;;;;52.42;21.45;;;;;;;;;;5012667;28;20030;-60
2021/03/26 02:08:44;;;;;;;43.22;21.23;;;;;;;;;;5013784;28;20375;-59
2021/03/26 02:11:35;;;;;;;44.63;21.35;;;;;;;;;;5014640;28;20026;-60
2021/03/26 02:14:02;;;;;;;54.60;22.38;;;;;;;;;;5012240;28;20057;-60
2021/03/26 02:16:30;;;;;;;41.70;21.15;;;;;;;;;;5011523;28;20037;-59
2021/03/26 02:19:15;;;;;;;51.10;22.80;;;;;;;;;;5012104;28;20041;-60
2021/03/26 02:21:40;;;;;;;45.17;21.80;;;;;;;;;;5012921;28;20025;-59
2021/03/26 02:24:06;;;;;;;47.58;22.35;;;;;;;;;;5011894;28;20044;-59
2021/03/26 02:26:35;;;;;;;49.28;22.65;;;;;;;;;;5001908;28;20038;-59
2021/03/26 02:29:22;;;;;;;47.38;23.25;;;;;;;;;;5008847;28;20073;-60
2021/03/26 02:32:02;;;;;;;48.80;23.65;;;;;;;;;;4993017;28;20046;-60
2021/03/26 02:34:28;;;;;;;47.85;22.90;;;;;;;;;;5008281;28;20054;-59
2021/03/26 02:37:01;;;;;;;42.50;21.73;;;;;;;;;;4991617;28;20030;-59
2021/03/26 02:39:40;;;;;;;46.95;23.85;;;;;;;;;;4992670;28;20034;-59
2021/03/26 02:42:14;;;;;;;53.13;25.03;;;;;;;;;;4993613;28;20030;-60
2021/03/26 02:45:06;;;;;;;44.70;22.95;;;;;;;;;;5007916;28;20046;-59
2021/03/26 02:47:44;;;;;;;54.42;25.17;;;;;;;;;;4991794;28;20034;-58
2021/03/26 02:50:23;;;;;;;51.35;24.02;;;;;;;;;;4993876;28;20037;-59
2021/03/26 02:52:52;;;;;;;56.13;25.75;;;;;;;;;;4992672;28;20027;-59
2021/03/26 02:55:41;;;;;;;53.25;24.75;;;;;;;;;;4991681;28;20022;-59
2021/03/26 02:58:26;;;;;;;53.58;25.65;;;;;;;;;;4983887;28;20097;-59
2021/03/26 03:01:12;;;;;;;53.55;24.70;;;;;;;;;;5008420;28;20037;-60
2021/03/26 03:03:40;;;;;;;56.33;25.17;;;;;;;;;;4991257;28;20060;-60
2021/03/26 03:06:16;;;;;;;51.80;25.80;;;;;;;;;;5008201;28;20077;-59
2021/03/26 03:09:09;;;;;;;54.88;26.27;;;;;;;;;;4979976;28;20121;-59
2021/03/26 03:11:50;;;;;;;55.50;26.08;;;;;;;;;;5027236;28;20084;-59
2021/03/26 03:14:24;;;;;;;56.70;27.75;;;;;;;;;;5011342;28;20038;-60
2021/03/26 03:16:52;;;;;;;55.42;25.83;;;;;;;;;;5012099;28;20080;-59
2021/03/26 03:19:25;;;;;;;55.45;26.98;;;;;;;;;;5012559;28;20068;-60
2021/03/26 03:21:59;;;;;;;58.45;26.48;;;;;;;;;;5010497;28;20075;-60
2021/03/26 03:24:32;;;;;;;49.05;25.23;;;;;;;;;;5012610;28;20100;-60
2021/03/26 03:27:05;;;;;;;55.05;26.10;;;;;;;;;;5010114;28;20068;-60
2021/03/26 03:29:37;;;;;;;60.50;28.52;;;;;;;;;;5011173;28;20317;-60
2021/03/26 03:32:17;;;;;;;58.75;27.38;;;;;;;;;;5010935;28;20091;-59
2021/03/26 03:34:48;;;;;;;56.88;26.30;;;;;;;;;;5009860;28;20058;-60
2021/03/26 03:37:40;;;;;;;55.33;27.33;;;;;;;;;;5010859;28;20083;-60
2021/03/26 03:40:06;;;;;;;64.07;29.83;;;;;;;;;;5009502;28;20061;-60
2021/03/26 03:42:34;;;;;;;57.20;27.83;;;;;;;;;;5013232;28;20066;-60
2021/03/26 03:45:18;;;;;;;59.17;27.92;;;;;;;;;;5011493;28;20025;-60
2021/03/26 03:47:48;;;;;;;56.72;27.10;;;;;;;;;;5009927;28;20419;-60
2021/03/26 03:50:20;;;;;;;55.20;27.60;;;;;;;;;;5010859;28;20431;-60
2021/03/26 03:52:54;;;;;;;58.05;27.23;;;;;;;;;;5010145;28;20038;-60
2021/03/26 03:55:21;;;;;;;61.70;27.30;;;;;;;;;;5012123;28;20037;-59
2021/03/26 03:58:08;;;;;;;57.95;26.10;;;;;;;;;;5009954;28;20103;-59
2021/03/26 04:00:36;;;;;;;61.10;28.05;;;;;;;;;;5010441;28;20038;-61
2021/03/26 04:03:09;;;;;;;56.25;26.60;;;;;;;;;;5010579;28;20087;-60
2021/03/26 04:05:49;;;;;;;57.58;26.60;;;;;;;;;;5010205;28;20033;-60
2021/03/26 04:08:26;;;;;;;51.67;26.20;;;;;;;;;;5010299;28;20049;-60
2021/03/26 04:10:54;;;;;;;57.45;25.08;;;;;;;;;;4993780;28;20060;-59
2021/03/26 04:13:23;;;;;;;50.35;24.55;;;;;;;;;;5026857;28;20481;-60
2021/03/26 04:15:52;;;;;;;51.28;25.83;;;;;;;;;;5011288;28;20044;-60
2021/03/26 04:18:23;;;;;;;49.65;24.27;;;;;;;;;;4985837;28;20038;-60
2021/03/26 04:21:27;;;;;;;51.58;26.00;;;;;;;;;;4992406;28;20133;-60
2021/03/26 04:24:21;;;;;;;54.53;24.13;;;;;;;;;;4990727;28;20459;-60
2021/03/26 04:27:41;;;;;;;50.15;23.95;;;;;;;;;;4969522;28;20042;-59
2021/03/26 04:30:32;;;;;;;51.30;25.42;;;;;;;;;;4996367;28;20038;-59
2021/03/26 04:33:10;;;;;;;49.70;24.88;;;;;;;;;;4990477;28;20042;-59
2021/03/26 04:35:36;;;;;;;44.75;23.00;;;;;;;;;;5006404;28;20096;-60
2021/03/26 04:38:37;;;;;;;54.63;25.83;;;;;;;;;;4989884;28;20061;-59
2021/03/26 04:41:11;;;;;;;50.08;24.13;;;;;;;;;;4957909;28;20061;-61
2021/03/26 04:43:43;;;;;;;52.15;24.00;;;;;;;;;;4992077;28;20031;-59
2021/03/26 04:46:25;;;;;;;52.58;25.13;;;;;;;;;;4990721;28;20534;-59
2021/03/26 04:49:17;;;;;;;46.92;23.40;;;;;;;;;;5000575;28;20074;-60
2021/03/26 04:52:22;;;;;;;50.25;24.38;;;;;;;;;;4991249;28;20035;-60
2021/03/26 04:54:48;;;;;;;50.17;23.20;;;;;;;;;;5006113;28;20117;-59
2021/03/26 04:57:57;;;;;;;50.35;22.05;;;;;;;;;;4999370;28;20057;-60
2021/03/26 05:00:41;;;;;;;47.45;20.58;;;;;;;;;;5017552;28;20422;-61
2021/03/26 05:03:19;;;;;;;48.33;23.02;;;;;;;;;;5016627;28;20026;-59
2021/03/26 05:05:48;;;;;;;47.22;22.73;;;;;;;;;;5010036;28;20117;-59
2021/03/26 05:08:22;;;;;;;46.78;23.15;;;;;;;;;;5009857;28;20117;-60
2021/03/26 05:11:07;;;;;;;48.58;24.08;;;;;;;;;;5010705;28;20317;-60
2021/03/26 05:13:36;;;;;;;46.88;23.08;;;;;;;;;;5009828;28;20394;-60
2021/03/26 05:16:10;;;;;;;45.88;22.75;;;;;;;;;;5009177;28;20253;-61
2021/03/26 05:19:28;;;;;;;46.25;22.17;;;;;;;;;;5011802;28;20046;-59
2021/03/26 05:21:58;;;;;;;46.90;21.92;;;;;;;;;;4980447;28;20038;-59
2021/03/26 05:24:51;;;;;;;47.65;22.50;;;;;;;;;;5013591;28;20120;-60
2021/03/26 05:27:36;;;;;;;52.45;22.85;;;;;;;;;;5014431;28;20049;-59
2021/03/26 05:30:02;;;;;;;45.40;21.98;;;;;;;;;;5012573;28;20034;-60
2021/03/26 05:32:44;;;;;;;42.85;20.38;;;;;;;;;;5013202;28;20430;-60
2021/03/26 05:35:34;;;;;;;44.05;20.38;;;;;;;;;;5012984;28;20127;-60
2021/03/26 05:38:20;;;;;;;44.35;19.58;;;;;;;;;;5014231;28;20103;-60
2021/03/26 05:41:22;;;;;;;45.10;20.60;;;;;;;;;;5012755;28;20531;-60
2021/03/26 05:44:23;;;;;;;41.33;20.10;;;;;;;;;;5013463;28;20088;-59
2021/03/26 05:46:52;;;;;;;40.95;20.15;;;;;;;;;;5012233;28;20072;-59
2021/03/26 05:49:45;;;;;;;44.35;20.90;;;;;;;;;;5012806;28;20522;-58
2021/03/26 05:52:13;;;;;;;45.72;21.92;;;;;;;;;;4995905;28;20030;-60
2021/03/26 05:54:42;;;;;;;42.78;20.98;;;;;;;;;;5012706;28;20040;-60
2021/03/26 05:57:29;;;;;;;41.08;21.08;;;;;;;;;;5013297;28;20034;-59
2021/03/26 06:00:14;;;;;;;45.97;20.83;;;;;;;;;;5012174;28;20158;-60
2021/03/26 06:03:07;;;;;;;46.67;20.88;;;;;;;;;;5012404;28;20125;-60
2021/03/26 06:06:09;;;;;;;45.78;21.40;;;;;;;;;;5014028;28;20041;-60
2021/03/26 06:08:59;;;;;;;43.35;20.27;;;;;;;;;;5013381;28;20056;-59
2021/03/26 06:11:57;;;;;;;47.08;20.50;;;;;;;;;;4993655;28;20034;-60
2021/03/26 06:15:00;;;;;;;46.72;22.15;;;;;;;;;;5013875;28;20044;-60
2021/03/26 06:18:03;;;;;;;46.08;20.67;;;;;;;;;;5011978;28;20171;-59
2021/03/26 06:21:23;;;;;;;45.53;23.13;;;;;;;;;;4971444;28;20173;-60
2021/03/26 06:24:24;;;;;;;44.95;19.55;;;;;;;;;;4933685;29;20079;-58
2021/03/26 06:27:17;;;;;;;48.63;22.55;;;;;;;;;;5012770;28;20528;-59
2021/03/26 06:30:00;;;;;;;49.78;21.05;;;;;;;;;;5011718;28;20053;-59
2021/03/26 06:32:47;;;;;;;45.85;20.05;;;;;;;;;;5012065;28;20442;-59
2021/03/26 06:35:42;;;;;;;42.35;21.23;;;;;;;;;;5011815;28;20050;-59
2021/03/26 06:38:23;;;;;;;45.03;20.70;;;;;;;;;;5012789;28;20061;-60
2021/03/26 06:40:52;;;;;;;44.90;20.73;;;;;;;;;;5011982;28;20128;-60
2021/03/26 06:43:17;;;;;;;44.13;20.67;;;;;;;;;;5012651;28;20028;-60
2021/03/26 06:45:55;;;;;;;41.53;20.20;;;;;;;;;;5013250;28;20034;-59
2021/03/26 06:48:32;;;;;;;50.15;23.58;;;;;;;;;;5012439;28;20025;-59
2021/03/26 06:51:04;;;;;;;45.80;20.77;;;;;;;;;;5013094;28;20078;-59
2021/03/26 06:53:35;;;;;;;48.17;21.50;;;;;;;;;;5013109;28;20030;-58
2021/03/26 06:56:06;;;;;;;44.22;21.23;;;;;;;;;;5011027;28;20029;-59
2021/03/26 06:58:34;;;;;;;43.28;21.08;;;;;;;;;;5011617;28;20064;-60
2021/03/26 07:01:00;;;;;;;42.85;21.08;;;;;;;;;;5012081;28;20033;-59
2021/03/26 07:03:28;;;;;;;44.13;21.73;;;;;;;;;;5012609;28;20100;-59
2021/03/26 07:05:53;;;;;;;47.83;22.92;;;;;;;;;;5012815;28;20037;-59
2021/03/26 07:08:34;;;;;;;50.57;21.60;;;;;;;;;;5010825;28;20036;-59
2021/03/26 07:11:02;;;;;;;48.15;21.42;;;;;;;;;;5012410;28;20489;-59
2021/03/26 07:13:28;;;;;;;46.17;20.63;;;;;;;;;;5012669;28;20061;-60
2021/03/26 07:15:57;;;;;;;46.80;21.57;;;;;;;;;;5012853;28;20084;-60
2021/03/26 07:18:31;;;;;;;45.50;22.30;;;;;;;;;;5011695;28;20454;-59
2021/03/26 07:21:11;;;;;;;44.47;20.52;;;;;;;;;;5012872;28;20045;-59
2021/03/26 07:23:48;;;;;;;50.28;23.58;;;;;;;;;;5012605;28;20109;-59
2021/03/26 07:26:19;;;;;;;46.63;22.77;;;;;;;;;;5010440;28;20141;-59
2021/03/26 07:29:27;;;;;;;49.40;22.42;;;;;;;;;;5010947;28;20037;-59
2021/03/26 07:32:09;;;;;;;46.15;22.25;;;;;;;;;;5012472;28;20026;-59
2021/03/26 07:34:53;;;;;;;56.72;22.27;;;;;;;;;;5010627;28;20046;-60
2021/03/26 07:37:21;;;;;;;46.20;22.02;;;;;;;;;;5011486;28;20045;-60
2021/03/26 07:39:52;;;;;;;45.85;22.10;;;;;;;;;;5010742;28;20045;-62
2021/03/26 07:42:26;;;;;;;42.97;21.90;;;;;;;;;;5009486;28;20049;-60
2021/03/26 07:45:01;;;;;;;42.20;21.15;;;;;;;;;;5010639;28;20394;-59
2021/03/26 07:47:43;;;;;;;38.63;18.33;;;;;;;;;;5010065;28;20033;-59
2021/03/26 07:50:27;;;;;;;43.33;20.65;;;;;;;;;;5011010;28;20049;-58
2021/03/26 07:52:59;;;;;;;48.15;20.45;;;;;;;;;;5011680;28;20030;-59
2021/03/26 07:55:44;;;;;;;45.03;21.48;;;;;;;;;;5010056;28;20329;-59
2021/03/26 07:58:29;;;;;;;45.45;22.52;;;;;;;;;;5009930;28;20026;-60
2021/03/26 08:01:12;;;;;;;47.88;21.40;;;;;;;;;;5011749;28;20041;-59
2021/03/26 08:03:57;;;;;;;45.22;21.17;;;;;;;;;;5010004;28;20057;-59
2021/03/26 08:06:37;;;;;;;47.70;21.42;;;;;;;;;;5010989;28;20043;-60
2021/03/26 08:09:21;;;;;;;43.72;20.23;;;;;;;;;;5011872;28;20045;-60
2021/03/26 08:11:58;;;;;;;43.67;18.98;;;;;;;;;;5011848;28;20469;-59
2021/03/26 08:14:32;;;;;;;38.90;19.33;;;;;;;;;;5009630;28;20462;-59
2021/03/26 08:17:06;;;;;;;50.17;20.48;;;;;;;;;;5011590;28;20120;-60
2021/03/26 08:19:50;;;;;;;37.13;18.95;;;;;;;;;;5010999;28;20034;-60
2021/03/26 08:22:15;;;;;;;44.83;19.52;;;;;;;;;;5010909;28;20022;-60
2021/03/26 08:24:59;;;;;;;38.83;18.53;;;;;;;;;;5011230;28;20036;-60
2021/03/26 08:27:24;;;;;;;39.00;18.60;;;;;;;;;;5010854;28;20038;-59
2021/03/26 08:30:02;;;;;;;39.13;18.73;;;;;;;;;;5011615;28;20469;-60
2021/03/26 08:32:37;;;;;;;41.03;19.13;;;;;;;;;;5010863;28;20034;-59
2021/03/26 08:35:32;;;;;;;38.70;19.00;;;;;;;;;;5017217;28;20052;-59
2021/03/26 08:38:23;;;;;;;36.15;18.42;;;;;;;;;;5001883;28;20037;-60
2021/03/26 08:40:52;;;;;;;33.80;17.17;;;;;;;;;;4987809;28;20046;-60
2021/03/26 08:43:18;;;;;;;33.08;16.58;;;;;;;;;;5019369;28;20044;-59
2021/03/26 08:46:02;;;;;;;32.70;16.42;;;;;;;;;;5021081;28;20038;-59
2021/03/26 08:48:39;;;;;;;35.15;15.82;;;;;;;;;;5008219;28;20045;-59
2021/03/26 08:51:23;;;;;;;32.08;15.20;;;;;;;;;;5013436;28;20108;-60
2021/03/26 08:53:48;;;;;;;35.35;15.85;;;;;;;;;;5009335;28;20038;-60
2021/03/26 08:56:13;;;;;;;30.73;17.07;;;;;;;;;;5012404;28;20414;-59
2021/03/26 08:58:58;;;;;;;28.87;15.83;;;;;;;;;;5011397;28;20029;-60
2021/03/26 09:01:30;;;;;;;43.33;18.00;;;;;;;;;;5009980;28;20042;-60
2021/03/26 09:04:03;;;;;;;27.47;14.33;;;;;;;;;;5012907;28;20267;-60
2021/03/26 09:06:29;;;;;;;27.03;13.60;;;;;;;;;;5010115;28;20274;-60
2021/03/26 09:09:24;;;;;;;29.83;14.63;;;;;;;;;;5010951;28;20283;-60
2021/03/26 09:12:01;;;;;;;29.00;12.77;;;;;;;;;;4973741;28;20475;-59
2021/03/26 09:14:45;;;;;;;30.40;13.30;;;;;;;;;;5020663;28;20271;-60
2021/03/26 09:17:30;;;;;;;24.37;12.63;;;;;;;;;;5021753;28;20275;-60
2021/03/26 09:20:01;;;;;;;22.07;11.80;;;;;;;;;;5022947;28;20263;-59
2021/03/26 09:22:33;;;;;;;27.00;12.83;;;;;;;;;;5019773;28;20271;-59
2021/03/26 09:25:01;;;;;;;24.90;12.63;;;;;;;;;;5020701;28;20714;-59
2021/03/26 09:27:51;;;;;;;22.03;10.33;;;;;;;;;;5022599;28;20278;-59
2021/03/26 09:30:17;;;;;;;18.60;10.03;;;;;;;;;;5012566;28;20748;-60
2021/03/26 09:32:48;;;;;;;19.80;9.80;;;;;;;;;;5023617;28;20301;-59
2021/03/26 09:35:16;;;;;;;21.87;9.73;;;;;;;;;;5037916;28;20049;-59
2021/03/26 09:37:48;;;;;;;19.93;10.23;;;;;;;;;;5028568;28;20635;-60
2021/03/26 09:40:25;;;;;;;20.77;10.73;;;;;;;;;;5021177;28;20306;-59
2021/03/26 09:42:53;;;;;;;23.37;11.10;;;;;;;;;;5021405;28;20338;-58
2021/03/26 09:45:30;;;;;;;26.33;11.03;;;;;;;;;;5020867;28;20263;-59
2021/03/26 09:47:56;;;;;;;23.53;11.37;;;;;;;;;;5021765;28;20259;-59
2021/03/26 09:50:27;;;;;;;20.83;9.87;;;;;;;;;;5021930;28;20381;-60
2021/03/26 09:52:53;;;;;;;25.73;11.40;;;;;;;;;;5023021;28;20050;-58
2021/03/26 09:55:24;;;;;;;24.23;10.65;;;;;;;;;;5011873;28;20265;-59
2021/03/26 09:57:59;;;;;;;27.13;11.37;;;;;;;;;;5011652;28;20084;-58
2021/03/26 10:00:46;;;;;;;22.07;10.73;;;;;;;;;;5031087;28;20716;-59
2021/03/26 10:03:20;;;;;;;16.65;9.90;;;;;;;;;;4992219;28;20334;-59
2021/03/26 10:05:49;;;;;;;25.70;9.90;;;;;;;;;;4992453;28;20026;-59
2021/03/26 10:11:06;;;;;;;22.58;8.57;;;;;;;;;;5013221;28;20260;-59
2021/03/26 10:13:33;;;;;;;19.27;9.53;;;;;;;;;;5010944;28;20062;-59
2021/03/26 10:16:05;;;;;;;22.23;8.93;;;;;;;;;;5012086;28;20256;-59
2021/03/26 10:18:43;;;;;;;20.67;9.10;;;;;;;;;;5012379;28;20283;-59
2021/03/26 10:21:23;;;;;;;18.83;7.87;;;;;;;;;;5012947;28;20322;-58
2021/03/26 10:24:07;;;;;;;17.33;8.23;;;;;;;;;;5013678;28;20259;-59
2021/03/26 10:26:32;;;;;;;14.57;7.33;;;;;;;;;;5012947;28;20283;-59
2021/03/26 10:29:04;;;;;;;14.35;6.45;;;;;;;;;;5028480;28;20259;-59
2021/03/26 10:31:34;;;;;;;20.03;7.43;;;;;;;;;;5011475;28;20217;-60
2021/03/26 10:34:01;;;;;;;17.23;6.73;;;;;;;;;;5012797;28;20303;-60
2021/03/26 10:36:49;;;;;;;14.97;6.37;;;;;;;;;;5009939;28;20765;-60
2021/03/26 10:39:15;;;;;;;13.97;7.43;;;;;;;;;;5012967;28;20267;-60
2021/03/26 10:41:40;;;;;;;10.70;6.17;;;;;;;;;;5012001;28;20346;-58
2021/03/26 10:44:05;;;;;;;14.53;7.03;;;;;;;;;;5012386;28;20446;-60
2021/03/26 10:46:35;;;;;;;16.23;7.03;;;;;;;;;;5011532;28;20084;-59
2021/03/26 10:49:10;;;;;;;16.70;6.20;;;;;;;;;;5012477;28;20033;-59
2021/03/26 10:51:51;;;;;;;11.73;5.73;;;;;;;;;;5011441;28;20334;-59
2021/03/26 10:54:19;;;;;;;14.97;5.80;;;;;;;;;;5011887;28;20777;-60
2021/03/26 10:57:11;;;;;;;13.83;5.20;;;;;;;;;;5011159;28;20323;-59
2021/03/26 10:59:55;;;;;;;10.90;5.93;;;;;;;;;;5010411;28;20310;-59
2021/03/26 11:02:26;;;;;;;11.70;5.50;;;;;;;;;;5011981;28;20274;-60
2021/03/26 11:05:15;;;;;;;11.97;4.90;;;;;;;;;;5012060;28;20259;-60
2021/03/26 11:07:42;;;;;;;14.83;5.23;;;;;;;;;;4981911;28;20291;-59
2021/03/26 11:10:11;;;;;;;13.10;4.13;;;;;;;;;;5011931;28;20248;-60
2021/03/26 11:12:48;;;;;;;21.67;4.70;;;;;;;;;;5011901;28;20313;-60
2021/03/26 11:15:15;;;;;;;8.77;3.22;;;;;;;;;;5010886;28;20454;-59
2021/03/26 11:18:01;;;;;;;13.70;4.17;;;;;;;;;;5010556;28;20082;-59
2021/03/26 11:20:30;;;;;;;10.93;3.57;;;;;;;;;;5010285;28;20428;-58
2021/03/26 11:22:55;;;;;;;8.77;3.10;;;;;;;;;;5011828;28;20092;-59
2021/03/26 11:25:22;;;;;;;6.67;2.53;;;;;;;;;;5013180;28;20018;-59
2021/03/26 11:27:49;;;;;;;11.77;3.33;;;;;;;;;;5019959;28;20349;-59
2021/03/26 11:30:21;;;;;;;15.87;3.00;;;;;;;;;;5026704;28;20463;-59
2021/03/26 11:32:49;;;;;;;7.77;3.30;;;;;;;;;;5010624;28;20129;-60
2021/03/26 11:35:17;;;;;;;6.80;2.90;;;;;;;;;;5010525;28;20442;-59
2021/03/26 11:37:48;;;;;;;10.77;3.50;;;;;;;;;;5015778;28;20033;-60
2021/03/26 11:40:17;;;;;;;9.20;3.77;;;;;;;;;;5019043;28;20094;-59
2021/03/26 11:43:08;;;;;;;6.87;3.13;;;;;;;;;;5021040;28;20033;-60
2021/03/26 11:45:45;;;;;;;8.90;3.50;;;;;;;;;;5018172;28;20045;-60
2021/03/26 11:48:11;;;;;;;8.77;3.80;;;;;;;;;;5022528;28;20112;-61
2021/03/26 11:50:40;;;;;;;7.28;3.80;;;;;;;;;;5027148;28;20116;-59
2021/03/26 11:53:17;;;;;;;10.43;3.93;;;;;;;;;;5017814;28;20467;-59
2021/03/26 11:55:51;;;;;;;10.23;3.30;;;;;;;;;;5018846;28;20025;-60
2021/03/26 11:58:20;;;;;;;11.73;3.90;;;;;;;;;;5016477;28;20471;-60
2021/03/26 12:00:54;;;;;;;10.00;3.47;;;;;;;;;;5009998;28;20061;-60
2021/03/26 12:03:22;;;;;;;7.53;3.50;;;;;;;;;;5011368;28;20431;-60
2021/03/26 12:06:06;;;;;;;10.40;4.07;;;;;;;;;;5011445;28;20038;-60
2021/03/26 12:08:50;;;;;;;7.67;3.63;;;;;;;;;;5010782;28;20064;-59
2021/03/26 12:11:20;;;;;;;10.43;4.33;;;;;;;;;;5011437;28;20034;-60
2021/03/26 12:14:04;;;;;;;14.17;4.10;;;;;;;;;;5010288;28;20044;-59
2021/03/26 12:16:36;;;;;;;10.70;4.03;;;;;;;;;;5009884;28;20030;-60
2021/03/26 12:19:06;;;;;;;14.10;4.73;;;;;;;;;;5011265;28;20034;-59
2021/03/26 12:21:35;;;;;;;8.40;3.57;;;;;;;;;;5010551;28;20056;-59
2021/03/26 12:24:14;;;;;;;9.00;3.20;;;;;;;;;;5011405;28;20041;-59
2021/03/26 12:26:58;;;;;;;11.23;3.80;;;;;;;;;;5010478;28;20041;-60
2021/03/26 12:29:36;;;;;;;12.60;3.20;;;;;;;;;;5012913;28;20096;-59
2021/03/26 12:32:04;;;;;;;11.60;3.53;;;;;;;;;;5013350;28;20099;-59
2021/03/26 12:34:29;;;;;;;9.17;3.87;;;;;;;;;;5014768;28;20022;-58
2021/03/26 12:37:06;;;;;;;9.57;3.00;;;;;;;;;;5014446;28;20036;-59
2021/03/26 12:39:36;;;;;;;12.02;3.30;;;;;;;;;;5014814;28;20029;-59
2021/03/26 12:42:17;;;;;;;6.57;2.90;;;;;;;;;;5014863;28;20034;-59
2021/03/26 12:44:53;;;;;;;9.67;2.87;;;;;;;;;;5011821;28;20330;-59
2021/03/26 12:47:24;;;;;;;10.27;2.90;;;;;;;;;;5014848;28;20045;-59
2021/03/26 12:49:53;;;;;;;6.53;2.57;;;;;;;;;;5013003;28;20029;-59
2021/03/26 12:52:25;;;;;;;8.23;2.53;;;;;;;;;;5014503;28;20029;-60
2021/03/26 12:55:06;;;;;;;10.50;3.77;;;;;;;;;;5013896;28;20026;-59
2021/03/26 12:57:35;;;;;;;7.70;2.50;;;;;;;;;;5014132;28;20096;-58
2021/03/26 13:00:10;;;;;;;7.67;2.77;;;;;;;;;;5013486;28;20117;-59
2021/03/26 13:02:51;;;;;;;14.63;2.93;;;;;;;;;;5013008;28;20034;-59
2021/03/26 13:05:22;;;;;;;9.67;2.43;;;;;;;;;;5014486;28;20040;-59
2021/03/26 13:07:58;;;;;;;11.40;2.43;;;;;;;;;;5013194;28;20046;-58
2021/03/26 13:10:26;;;;;;;7.77;2.33;;;;;;;;;;5014256;28;20026;-59
2021/03/26 13:12:52;;;;;;;9.27;2.33;;;;;;;;;;5013149;28;20030;-58
2021/03/26 13:15:17;;;;;;;;;;;;;;;;;;5014029;28;20018;-59
2021/03/26 13:17:43;;;;;;;10.50;2.13;;;;;;;;;;5012057;28;19924;-58
2021/03/26 13:20:11;;;;;;;7.40;2.58;;;;;;;;;;5014038;28;20034;-59
2021/03/26 13:22:47;;;;;;;9.23;2.37;;;;;;;;;;5014091;28;20038;-59
2021/03/26 13:25:17;;;;;;;6.78;2.22;;;;;;;;;;5013889;28;20045;-59
2021/03/26 13:27:45;;;;;;;7.77;2.40;;;;;;;;;;5028339;28;20083;-58
2021/03/26 13:30:11;;;;;;;5.30;2.20;;;;;;;;;;5013348;28;20026;-59
2021/03/26 13:32:54;;;;;;;12.77;2.30;;;;;;;;;;5013878;28;20373;-59
2021/03/26 13:35:22;;;;;;;6.00;2.43;;;;;;;;;;5012145;28;20050;-59
2021/03/26 13:37:51;;;;;;;10.47;2.80;;;;;;;;;;5012729;28;20462;-59
2021/03/26 13:40:18;;;;;;;5.53;2.40;;;;;;;;;;5012638;28;20033;-59
2021/03/26 13:42:49;;;;;;;6.57;2.07;;;;;;;;;;5012556;28;20034;-59
2021/03/26 13:45:19;;;;;;;6.63;2.07;;;;;;;;;;5013074;28;20026;-59
2021/03/26 13:47:45;;;;;;;7.10;2.70;;;;;;;;;;5013112;28;20041;-58
2021/03/26 13:50:16;;;;;;;9.27;2.23;;;;;;;;;;5013447;28;20034;-59
2021/03/26 13:52:44;;;;;;;7.63;2.00;;;;;;;;;;5013880;28;20338;-59
2021/03/26 13:55:19;;;;;;;3.57;1.80;;;;;;;;;;5013742;28;20030;-59
2021/03/26 13:57:45;;;;;;;4.60;1.70;;;;;;;;;;5012068;28;20317;-58
2021/03/26 14:00:21;;;;;;;13.70;2.58;;;;;;;;;;5012676;28;20275;-60
2021/03/26 14:02:54;;;;;;;2.90;1.80;;;;;;;;;;5012787;28;20113;-59
2021/03/26 14:05:28;;;;;;;4.37;2.00;;;;;;;;;;5013313;28;20263;-59
2021/03/26 14:08:00;;;;;;;9.87;2.00;;;;;;;;;;5012890;28;20490;-59
2021/03/26 14:10:44;;;;;;;6.90;2.17;;;;;;;;;;5012876;28;20795;-60
2021/03/26 14:13:15;;;;;;;8.97;2.83;;;;;;;;;;5011933;28;20342;-59
2021/03/26 14:15:41;;;;;;;7.63;2.47;;;;;;;;;;5012986;28;20736;-58
2021/03/26 14:18:09;;;;;;;7.05;2.42;;;;;;;;;;5012676;28;20275;-58
2021/03/26 14:20:50;;;;;;;9.80;2.50;;;;;;;;;;5013170;28;20069;-59
2021/03/26 14:23:20;;;;;;;4.90;2.30;;;;;;;;;;5013076;28;20310;-58
2021/03/26 14:25:57;;;;;;;6.27;2.07;;;;;;;;;;5013037;28;20267;-58
2021/03/26 14:28:30;;;;;;;4.93;1.80;;;;;;;;;;5011105;28;20728;-58
2021/03/26 14:31:01;;;;;;;4.60;1.57;;;;;;;;;;5000831;28;20478;-58
2021/03/26 14:33:29;;;;;;;8.77;3.20;;;;;;;;;;5011062;28;20351;-58
2021/03/26 14:36:15;;;;;;;8.97;3.53;;;;;;;;;;5012099;28;20401;-58
2021/03/26 14:38:43;;;;;;;6.50;2.20;;;;;;;;;;5003576;28;20303;-60
2021/03/26 14:41:27;;;;;;;6.20;1.90;;;;;;;;;;5016168;28;20251;-60
2021/03/26 14:43:57;;;;;;;4.13;2.27;;;;;;;;;;5021424;28;20274;-60
2021/03/26 14:46:23;;;;;;;7.83;2.17;;;;;;;;;;5021922;28;20251;-60
2021/03/26 14:48:50;;;;;;;7.10;2.72;;;;;;;;;;5020550;28;20294;-59
2021/03/26 14:51:38;;;;;;;6.10;1.97;;;;;;;;;;5029348;28;20061;-59
2021/03/26 14:54:04;;;;;;;;;;;;;;;;;;5028158;28;20294;-58
2021/03/26 14:56:31;;;;;;;8.33;2.20;;;;;;;;;;5020695;28;20090;-59
2021/03/26 14:59:17;;;;;;;9.97;2.50;;;;;;;;;;5027440;28;20034;-58
2021/03/26 15:01:44;;;;;;;7.23;3.13;;;;;;;;;;5026362;28;20263;-59
2021/03/26 15:04:14;;;;;;;5.57;2.47;;;;;;;;;;5028705;28;20259;-59
2021/03/26 15:06:43;;;;;;;6.83;2.87;;;;;;;;;;5023711;28;20306;-60
2021/03/26 15:09:30;;;;;;;6.30;2.30;;;;;;;;;;5023730;28;20282;-59
2021/03/26 15:12:15;;;;;;;9.30;2.20;;;;;;;;;;5022872;28;20706;-57
2021/03/26 15:14:40;;;;;;;6.60;2.60;;;;;;;;;;5016616;28;20120;-58